Time,TemperatureF,DewpointF,PressureIn,WindDirection,WindDirectionDegrees,WindSpeedMPH,WindSpeedGustMPH,Humidity,HourlyPrecipIn,Conditions,Clouds,dailyrainin,SoftwareType,DateUTC
2013-09-14 00:22:00,67.0,53.0,30.11,ESE,107,4.0,6.0,61,0.00,,,0.00,,2013-09-14 05:22:00,
2013-09-14 00:52:00,66.0,53.0,30.11,SE,145,0.0,7.0,63,0.00,,,0.00,,2013-09-14 05:52:00,
2013-09-14 01:00:00,65.0,53.0,30.11,SSE,153,0.0,5.0,64,0.00,,,0.00,,2013-09-14 06:00:00,
2013-09-14 01:02:00,66.0,53.0,30.11,SE,145,0.0,7.0,63,0.00,,,0.00,,2013-09-14 06:02:00,
2013-09-14 01:21:00,65.0,53.0,30.11,SSE,153,0.0,5.0,64,0.00,,,0.00,,2013-09-14 06:21:00,
2013-09-14 01:32:00,65.0,53.0,30.11,SSE,153,0.0,5.0,64,0.00,,,0.00,,2013-09-14 06:32:00,
2013-09-14 01:52:00,65.0,53.0,30.11,SSE,153,0.0,5.0,64,0.00,,,0.00,,2013-09-14 06:52:00,
2013-09-14 02:52:00,63.0,53.0,30.09,ESE,120,2.0,4.0,70,0.00,,,0.00,,2013-09-14 07:52:00,
2013-09-14 03:12:00,63.0,53.0,30.09,South,187,2.0,4.0,71,0.00,,,0.00,,2013-09-14 08:12:00,
2013-09-14 03:22:00,63.0,53.0,30.09,South,187,2.0,4.0,71,0.00,,,0.00,,2013-09-14 08:22:00,
2013-09-14 03:32:00,63.0,53.0,30.09,South,187,2.0,4.0,71,0.00,,,0.00,,2013-09-14 08:32:00,
2013-09-14 03:52:00,62.0,53.0,30.09,SE,145,0.0,2.0,72,0.00,,,0.00,,2013-09-14 08:52:00,
2013-09-14 04:02:00,62.0,53.0,30.09,SE,145,0.0,2.0,72,0.00,,,0.00,,2013-09-14 09:02:00,
2013-09-14 04:12:00,62.0,53.0,30.09,SE,145,0.0,2.0,72,0.00,,,0.00,,2013-09-14 09:12:00,
2013-09-14 04:21:00,62.0,53.0,30.09,SE,145,0.0,2.0,72,0.00,,,0.00,,2013-09-14 09:21:00,
2013-09-14 04:31:00,61.0,53.0,30.08,SE,142,1.0,4.0,76,0.00,,,0.00,,2013-09-14 09:31:00,
2013-09-14 04:54:00,61.0,53.0,30.08,SE,142,1.0,4.0,76,0.00,,,0.00,,2013-09-14 09:54:00,
2013-09-14 05:03:00,61.0,53.0,30.08,SE,142,1.0,4.0,76,0.00,,,0.00,,2013-09-14 10:03:00,
2013-09-14 05:12:00,61.0,53.0,30.08,SE,142,1.0,4.0,76,0.00,,,0.00,,2013-09-14 10:12:00,
2013-09-14 05:23:00,61.0,53.0,30.08,SE,142,1.0,4.0,76,0.00,,,0.00,,2013-09-14 10:23:00,
2013-09-14 05:53:00,61.0,53.0,30.08,ESE,122,0.0,3.0,76,0.00,,,0.00,,2013-09-14 10:53:00,
2013-09-14 06:02:00,61.0,53.0,30.08,ESE,122,0.0,3.0,76,0.00,,,0.00,,2013-09-14 11:02:00,
2013-09-14 06:22:00,60.0,54.0,30.08,ENE,73,0.0,2.0,81,0.00,,,0.00,,2013-09-14 11:22:00,
2013-09-14 06:33:00,60.0,54.0,30.08,ENE,73,0.0,2.0,81,0.00,,,0.00,,2013-09-14 11:33:00,
2013-09-14 06:52:00,59.0,54.0,30.08,ENE,73,0.0,0.0,82,0.00,,,0.00,,2013-09-14 11:52:00,
2013-09-14 07:22:00,59.0,54.0,30.08,ENE,73,0.0,0.0,82,0.00,,,0.00,,2013-09-14 12:22:00,
2013-09-14 07:32:00,59.0,54.0,30.08,ENE,73,0.0,0.0,82,0.00,,,0.00,,2013-09-14 12:32:00,
2013-09-14 07:52:00,59.0,54.0,30.09,ENE,73,0.0,0.0,82,0.00,,,0.00,,2013-09-14 12:52:00,
2013-09-14 08:21:00,59.0,54.0,30.09,ENE,73,0.0,0.0,82,0.00,,,0.00,,2013-09-14 13:21:00,
2013-09-14 08:52:00,61.0,54.0,30.09,SE,134,0.0,3.0,77,0.00,,,0.00,,2013-09-14 13:52:00,
2013-09-14 09:22:00,65.0,54.0,30.09,SSE,156,0.0,6.0,68,0.00,,,0.00,,2013-09-14 14:22:00,
2013-09-14 09:32:00,65.0,54.0,30.09,SSE,156,0.0,6.0,68,0.00,,,0.00,,2013-09-14 14:32:00,
2013-09-14 09:52:00,65.0,54.0,30.09,SSE,156,0.0,6.0,68,0.00,,,0.00,,2013-09-14 14:52:00,
2013-09-14 10:11:00,69.0,55.0,30.09,SSE,150,0.0,9.0,62,0.00,,,0.00,,2013-09-14 15:11:00,
2013-09-14 10:22:00,69.0,55.0,30.09,SSE,150,0.0,9.0,62,0.00,,,0.00,,2013-09-14 15:22:00,
2013-09-14 10:53:00,71.0,55.0,30.09,SSE,163,0.0,9.0,58,0.00,,,0.00,,2013-09-14 15:53:00,
2013-09-14 11:03:00,71.0,55.0,30.09,SSE,163,0.0,9.0,58,0.00,,,0.00,,2013-09-14 16:03:00,
2013-09-14 11:13:00,71.0,55.0,30.09,SSE,163,0.0,9.0,58,0.00,,,0.00,,2013-09-14 16:13:00,
2013-09-14 11:54:00,74.0,56.0,30.08,SSE,156,3.0,10.0,54,0.00,,,0.00,,2013-09-14 16:54:00,
2013-09-14 12:11:00,76.0,57.0,30.07,SSW,205,1.0,11.0,52,0.00,,,0.00,,2013-09-14 17:11:00,
2013-09-14 12:23:00,76.0,57.0,30.07,SSW,205,1.0,11.0,52,0.00,,,0.00,,2013-09-14 17:23:00,
2013-09-14 12:54:00,78.0,58.0,30.06,SE,124,2.0,10.0,50,0.00,,,0.00,,2013-09-14 17:54:00,
2013-09-14 13:12:00,79.0,58.0,30.05,SE,145,0.0,12.0,48,0.00,,,0.00,,2013-09-14 18:12:00,
2013-09-14 13:22:00,80.0,57.0,30.05,SE,125,3.0,10.0,46,0.00,,,0.00,,2013-09-14 18:22:00,
2013-09-14 13:52:00,81.0,58.0,30.04,SE,128,7.0,10.0,45,0.00,,,0.00,,2013-09-14 18:52:00,
2013-09-14 14:02:00,81.0,58.0,30.04,SE,128,7.0,10.0,45,0.00,,,0.00,,2013-09-14 19:02:00,
2013-09-14 14:22:00,81.0,60.0,30.02,SE,139,3.0,11.0,49,0.00,,,0.00,,2013-09-14 19:22:00,
2013-09-14 14:52:00,82.0,60.0,30.01,SW,218,1.0,12.0,47,0.00,,,0.00,,2013-09-14 19:52:00,
2013-09-14 15:12:00,82.0,60.0,30.00,SSW,203,4.0,13.0,48,0.00,,,0.00,,2013-09-14 20:12:00,
2013-09-14 15:22:00,82.0,60.0,30.00,SSW,203,4.0,13.0,48,0.00,,,0.00,,2013-09-14 20:22:00,
2013-09-14 15:52:00,83.0,62.0,29.99,SSW,200,2.0,10.0,50,0.00,,,0.00,,2013-09-14 20:52:00,
2013-09-14 16:11:00,83.0,62.0,29.98,SSE,151,10.0,11.0,49,0.00,,,0.00,,2013-09-14 21:11:00,
2013-09-14 16:22:00,83.0,62.0,29.98,SSE,151,10.0,11.0,49,0.00,,,0.00,,2013-09-14 21:22:00,
2013-09-14 16:54:00,82.0,63.0,29.96,SSW,212,2.0,11.0,53,0.00,,,0.00,,2013-09-14 21:54:00,
2013-09-14 17:24:00,82.0,64.0,29.94,ESE,116,0.0,11.0,54,0.00,,,0.00,,2013-09-14 22:24:00,
2013-09-14 17:53:00,83.0,65.0,29.94,ESE,114,2.0,10.0,54,0.00,,,0.00,,2013-09-14 22:53:00,
2013-09-14 18:01:00,83.0,64.0,29.93,ESE,121,6.0,13.0,52,0.00,,,0.00,,2013-09-14 23:01:00,
2013-09-14 18:23:00,83.0,64.0,29.93,ESE,121,6.0,13.0,52,0.00,,,0.00,,2013-09-14 23:23:00,
2013-09-14 18:34:00,83.0,64.0,29.93,ESE,121,6.0,13.0,52,0.00,,,0.00,,2013-09-14 23:34:00,
2013-09-14 18:42:00,83.0,64.0,29.93,ESE,121,6.0,13.0,52,0.00,,,0.00,,2013-09-14 23:42:00,
2013-09-14 18:53:00,83.0,64.0,29.93,ESE,121,6.0,13.0,52,0.00,,,0.00,,2013-09-14 23:53:00,
2013-09-14 19:53:00,81.0,64.0,29.92,SE,125,1.0,8.0,57,0.00,,,0.00,,2013-09-15 00:53:00,
2013-09-14 20:11:00,80.0,64.0,29.92,SSE,165,2.0,8.0,58,0.00,,,0.00,,2013-09-15 01:11:00,
2013-09-14 20:22:00,80.0,64.0,29.92,SSE,165,2.0,8.0,58,0.00,,,0.00,,2013-09-15 01:22:00,
2013-09-14 20:32:00,80.0,64.0,29.92,SSE,165,2.0,8.0,58,0.00,,,0.00,,2013-09-15 01:32:00,
2013-09-14 20:52:00,79.0,65.0,29.92,SW,222,3.0,7.0,62,0.00,,,0.00,,2013-09-15 01:52:00,
2013-09-14 21:12:00,78.0,64.0,29.92,South,188,4.0,10.0,62,0.00,,,0.00,,2013-09-15 02:12:00,
2013-09-14 21:22:00,78.0,64.0,29.92,South,188,4.0,10.0,62,0.00,,,0.00,,2013-09-15 02:22:00,
2013-09-14 21:52:00,77.0,64.0,29.94,SW,226,5.0,9.0,64,0.00,,,0.00,,2013-09-15 02:52:00,
2013-09-14 22:02:00,77.0,64.0,29.94,SW,226,5.0,9.0,64,0.00,,,0.00,,2013-09-15 03:02:00,
2013-09-14 22:22:00,76.0,64.0,29.94,South,178,4.0,10.0,66,0.00,,,0.00,,2013-09-15 03:22:00,
2013-09-14 22:55:00,76.0,64.0,29.94,SSE,166,2.0,8.0,66,0.00,,,0.00,,2013-09-15 03:55:00,
2013-09-14 23:02:00,-999.0,-99.9,29.95,SE,145,3.0,6.0,-999,-99.99,,,-99.99,,2013-09-15 04:02:00,
2013-09-14 23:24:00,75.0,64.0,29.95,SSE,167,2.0,6.0,69,0.00,,,0.00,,2013-09-15 04:24:00,
2013-09-14 23:54:00,74.0,64.0,29.95,SE,131,3.0,8.0,70,0.00,,,0.00,,2013-09-15 04:54:00,